sensor_id;sensor_type;location;lat;lon;timestamp;P1;durP1;ratioP1;P2;durP2;ratioP2
10430;SDS011;5262;59.958;17.726;2023-09-07T00:01:53;2.63;;;0.83;;
10430;SDS011;5262;59.958;17.726;2023-09-07T00:04:19;3.73;;;1.07;;
10430;SDS011;5262;59.958;17.726;2023-09-07T00:06:46;3.23;;;1.07;;
10430;SDS011;5262;59.958;17.726;2023-09-07T00:09:11;4.57;;;1.37;;
10430;SDS011;5262;59.958;17.726;2023-09-07T00:11:38;1.97;;;1.10;;
10430;SDS011;5262;59.958;17.726;2023-09-07T00:14:04;5.47;;;1.40;;
10430;SDS011;5262;59.958;17.726;2023-09-07T00:16:33;4.77;;;1.20;;
10430;SDS011;5262;59.958;17.726;2023-09-07T00:19:00;2.23;;;1.30;;
10430;SDS011;5262;59.958;17.726;2023-09-07T00:21:27;4.77;;;1.47;;
10430;SDS011;5262;59.958;17.726;2023-09-07T00:23:53;5.50;;;1.07;;
10430;SDS011;5262;59.958;17.726;2023-09-07T00:26:20;3.00;;;1.17;;
10430;SDS011;5262;59.958;17.726;2023-09-07T00:28:45;6.07;;;1.50;;
10430;SDS011;5262;59.958;17.726;2023-09-07T00:31:11;6.40;;;1.37;;
10430;SDS011;5262;59.958;17.726;2023-09-07T00:33:37;4.50;;;1.47;;
10430;SDS011;5262;59.958;17.726;2023-09-07T00:36:02;3.43;;;1.60;;
10430;SDS011;5262;59.958;17.726;2023-09-07T00:38:28;3.63;;;1.10;;
10430;SDS011;5262;59.958;17.726;2023-09-07T00:40:54;4.57;;;1.73;;
10430;SDS011;5262;59.958;17.726;2023-09-07T00:43:20;3.63;;;1.57;;
10430;SDS011;5262;59.958;17.726;2023-09-07T00:45:45;2.87;;;1.30;;
10430;SDS011;5262;59.958;17.726;2023-09-07T00:48:11;2.23;;;1.23;;
10430;SDS011;5262;59.958;17.726;2023-09-07T00:50:38;8.33;;;1.23;;
10430;SDS011;5262;59.958;17.726;2023-09-07T00:53:04;4.83;;;1.27;;
10430;SDS011;5262;59.958;17.726;2023-09-07T00:55:32;2.17;;;1.00;;
10430;SDS011;5262;59.958;17.726;2023-09-07T00:58:00;3.70;;;1.20;;
10430;SDS011;5262;59.958;17.726;2023-09-07T01:00:26;2.20;;;1.10;;
10430;SDS011;5262;59.958;17.726;2023-09-07T01:02:52;2.70;;;1.20;;
10430;SDS011;5262;59.958;17.726;2023-09-07T01:05:18;3.57;;;1.37;;
10430;SDS011;5262;59.958;17.726;2023-09-07T01:07:47;2.73;;;1.23;;
10430;SDS011;5262;59.958;17.726;2023-09-07T01:10:16;4.70;;;1.50;;
10430;SDS011;5262;59.958;17.726;2023-09-07T01:12:43;5.07;;;1.70;;
10430;SDS011;5262;59.958;17.726;2023-09-07T01:15:09;5.13;;;1.37;;
10430;SDS011;5262;59.958;17.726;2023-09-07T01:17:35;3.93;;;1.30;;
10430;SDS011;5262;59.958;17.726;2023-09-07T01:20:05;5.47;;;1.47;;
10430;SDS011;5262;59.958;17.726;2023-09-07T01:22:32;3.53;;;1.53;;
10430;SDS011;5262;59.958;17.726;2023-09-07T01:24:58;5.10;;;1.50;;
10430;SDS011;5262;59.958;17.726;2023-09-07T01:27:25;2.40;;;1.30;;
10430;SDS011;5262;59.958;17.726;2023-09-07T01:29:51;4.00;;;1.40;;
10430;SDS011;5262;59.958;17.726;2023-09-07T01:32:17;7.87;;;1.70;;
10430;SDS011;5262;59.958;17.726;2023-09-07T01:34:43;6.67;;;1.30;;
10430;SDS011;5262;59.958;17.726;2023-09-07T01:37:08;3.77;;;1.30;;
10430;SDS011;5262;59.958;17.726;2023-09-07T01:39:34;5.83;;;1.30;;
10430;SDS011;5262;59.958;17.726;2023-09-07T01:42:00;3.40;;;1.37;;
10430;SDS011;5262;59.958;17.726;2023-09-07T01:44:25;4.60;;;1.53;;
10430;SDS011;5262;59.958;17.726;2023-09-07T01:46:52;4.00;;;1.20;;
10430;SDS011;5262;59.958;17.726;2023-09-07T01:49:17;5.63;;;1.20;;
10430;SDS011;5262;59.958;17.726;2023-09-07T01:51:43;1.70;;;1.10;;
10430;SDS011;5262;59.958;17.726;2023-09-07T01:54:09;5.60;;;1.27;;
10430;SDS011;5262;59.958;17.726;2023-09-07T01:56:35;6.37;;;1.23;;
10430;SDS011;5262;59.958;17.726;2023-09-07T01:59:00;4.63;;;1.47;;
10430;SDS011;5262;59.958;17.726;2023-09-07T02:01:27;4.80;;;1.33;;
10430;SDS011;5262;59.958;17.726;2023-09-07T02:03:55;2.97;;;1.07;;
10430;SDS011;5262;59.958;17.726;2023-09-07T02:06:21;2.93;;;1.10;;
10430;SDS011;5262;59.958;17.726;2023-09-07T02:08:46;4.83;;;1.33;;
10430;SDS011;5262;59.958;17.726;2023-09-07T02:11:12;4.87;;;1.47;;
10430;SDS011;5262;59.958;17.726;2023-09-07T02:13:41;5.03;;;1.50;;
10430;SDS011;5262;59.958;17.726;2023-09-07T02:16:07;5.63;;;1.40;;
10430;SDS011;5262;59.958;17.726;2023-09-07T02:18:32;4.23;;;1.60;;
10430;SDS011;5262;59.958;17.726;2023-09-07T02:21:04;2.63;;;1.53;;
10430;SDS011;5262;59.958;17.726;2023-09-07T02:23:31;5.47;;;1.60;;
10430;SDS011;5262;59.958;17.726;2023-09-07T02:25:57;3.80;;;1.60;;
10430;SDS011;5262;59.958;17.726;2023-09-07T02:28:23;3.33;;;1.67;;
10430;SDS011;5262;59.958;17.726;2023-09-07T02:30:50;9.23;;;1.90;;
10430;SDS011;5262;59.958;17.726;2023-09-07T02:33:16;4.60;;;1.50;;
10430;SDS011;5262;59.958;17.726;2023-09-07T02:35:41;3.73;;;1.50;;
10430;SDS011;5262;59.958;17.726;2023-09-07T02:38:07;3.87;;;1.63;;
10430;SDS011;5262;59.958;17.726;2023-09-07T02:40:32;3.80;;;1.77;;
10430;SDS011;5262;59.958;17.726;2023-09-07T02:43:04;4.33;;;1.43;;
10430;SDS011;5262;59.958;17.726;2023-09-07T02:45:29;4.40;;;1.57;;
10430;SDS011;5262;59.958;17.726;2023-09-07T02:47:56;2.43;;;1.50;;
10430;SDS011;5262;59.958;17.726;2023-09-07T02:50:21;2.80;;;1.50;;
10430;SDS011;5262;59.958;17.726;2023-09-07T02:52:47;3.43;;;1.57;;
10430;SDS011;5262;59.958;17.726;2023-09-07T02:55:13;6.57;;;1.87;;
10430;SDS011;5262;59.958;17.726;2023-09-07T02:57:39;3.17;;;1.10;;
10430;SDS011;5262;59.958;17.726;2023-09-07T03:00:04;2.27;;;1.27;;
10430;SDS011;5262;59.958;17.726;2023-09-07T03:02:34;2.13;;;1.20;;
10430;SDS011;5262;59.958;17.726;2023-09-07T03:05:03;2.37;;;1.27;;
10430;SDS011;5262;59.958;17.726;2023-09-07T03:07:30;5.43;;;1.57;;
10430;SDS011;5262;59.958;17.726;2023-09-07T03:09:57;3.43;;;1.37;;
10430;SDS011;5262;59.958;17.726;2023-09-07T03:12:23;4.07;;;0.90;;
10430;SDS011;5262;59.958;17.726;2023-09-07T03:14:48;4.17;;;1.67;;
10430;SDS011;5262;59.958;17.726;2023-09-07T03:17:15;3.20;;;1.47;;
10430;SDS011;5262;59.958;17.726;2023-09-07T03:19:41;6.30;;;1.43;;
10430;SDS011;5262;59.958;17.726;2023-09-07T03:22:07;2.90;;;1.10;;
10430;SDS011;5262;59.958;17.726;2023-09-07T03:24:33;4.57;;;1.20;;
10430;SDS011;5262;59.958;17.726;2023-09-07T03:26:59;5.07;;;1.20;;
10430;SDS011;5262;59.958;17.726;2023-09-07T03:29:25;2.60;;;1.13;;
10430;SDS011;5262;59.958;17.726;2023-09-07T03:31:51;3.20;;;1.17;;
10430;SDS011;5262;59.958;17.726;2023-09-07T03:34:16;3.30;;;1.10;;
10430;SDS011;5262;59.958;17.726;2023-09-07T03:36:42;4.67;;;1.37;;
10430;SDS011;5262;59.958;17.726;2023-09-07T03:39:07;3.73;;;1.20;;
10430;SDS011;5262;59.958;17.726;2023-09-07T03:41:36;4.67;;;1.10;;
10430;SDS011;5262;59.958;17.726;2023-09-07T03:44:02;1.63;;;1.00;;
10430;SDS011;5262;59.958;17.726;2023-09-07T03:46:27;5.10;;;1.00;;
10430;SDS011;5262;59.958;17.726;2023-09-07T03:48:53;1.40;;;0.90;;
10430;SDS011;5262;59.958;17.726;2023-09-07T03:51:19;4.80;;;1.40;;
10430;SDS011;5262;59.958;17.726;2023-09-07T03:53:44;5.80;;;1.73;;
10430;SDS011;5262;59.958;17.726;2023-09-07T03:56:10;6.53;;;1.43;;
10430;SDS011;5262;59.958;17.726;2023-09-07T03:58:36;2.30;;;0.90;;
10430;SDS011;5262;59.958;17.726;2023-09-07T04:01:02;6.37;;;1.37;;
10430;SDS011;5262;59.958;17.726;2023-09-07T04:03:27;7.13;;;1.10;;
10430;SDS011;5262;59.958;17.726;2023-09-07T04:05:53;2.73;;;0.87;;
10430;SDS011;5262;59.958;17.726;2023-09-07T04:08:18;2.37;;;1.10;;
10430;SDS011;5262;59.958;17.726;2023-09-07T04:10:44;6.73;;;1.50;;
10430;SDS011;5262;59.958;17.726;2023-09-07T04:13:10;6.30;;;1.20;;
10430;SDS011;5262;59.958;17.726;2023-09-07T04:15:44;5.27;;;1.57;;
10430;SDS011;5262;59.958;17.726;2023-09-07T04:18:11;2.23;;;1.70;;
10430;SDS011;5262;59.958;17.726;2023-09-07T04:20:43;2.73;;;1.47;;
10430;SDS011;5262;59.958;17.726;2023-09-07T04:23:08;6.03;;;2.30;;
10430;SDS011;5262;59.958;17.726;2023-09-07T04:25:34;4.53;;;1.77;;
10430;SDS011;5262;59.958;17.726;2023-09-07T04:28:00;3.90;;;1.70;;
10430;SDS011;5262;59.958;17.726;2023-09-07T04:30:26;3.30;;;2.40;;
10430;SDS011;5262;59.958;17.726;2023-09-07T04:32:52;4.70;;;2.03;;
10430;SDS011;5262;59.958;17.726;2023-09-07T04:35:17;8.50;;;2.37;;
10430;SDS011;5262;59.958;17.726;2023-09-07T04:37:43;7.20;;;2.47;;
10430;SDS011;5262;59.958;17.726;2023-09-07T04:40:10;6.37;;;1.80;;
10430;SDS011;5262;59.958;17.726;2023-09-07T04:42:36;8.40;;;1.80;;
10430;SDS011;5262;59.958;17.726;2023-09-07T04:45:03;4.57;;;2.40;;
10430;SDS011;5262;59.958;17.726;2023-09-07T04:47:30;4.53;;;2.70;;
10430;SDS011;5262;59.958;17.726;2023-09-07T04:49:55;8.13;;;2.60;;
10430;SDS011;5262;59.958;17.726;2023-09-07T04:52:21;9.73;;;2.70;;
10430;SDS011;5262;59.958;17.726;2023-09-07T04:54:47;3.47;;;2.30;;
10430;SDS011;5262;59.958;17.726;2023-09-07T04:57:15;5.87;;;3.10;;
10430;SDS011;5262;59.958;17.726;2023-09-07T04:59:42;6.23;;;2.90;;
10430;SDS011;5262;59.958;17.726;2023-09-07T05:02:07;4.87;;;2.70;;
10430;SDS011;5262;59.958;17.726;2023-09-07T05:04:33;5.83;;;2.43;;
10430;SDS011;5262;59.958;17.726;2023-09-07T05:06:58;3.40;;;2.37;;
10430;SDS011;5262;59.958;17.726;2023-09-07T05:09:24;5.60;;;2.30;;
10430;SDS011;5262;59.958;17.726;2023-09-07T05:11:50;5.00;;;2.50;;
10430;SDS011;5262;59.958;17.726;2023-09-07T05:14:16;7.07;;;2.40;;
10430;SDS011;5262;59.958;17.726;2023-09-07T05:16:42;7.27;;;2.43;;
10430;SDS011;5262;59.958;17.726;2023-09-07T05:19:09;8.43;;;2.40;;
10430;SDS011;5262;59.958;17.726;2023-09-07T05:21:34;2.47;;;2.00;;
10430;SDS011;5262;59.958;17.726;2023-09-07T05:24:00;6.07;;;1.73;;
10430;SDS011;5262;59.958;17.726;2023-09-07T05:26:26;7.23;;;2.03;;
10430;SDS011;5262;59.958;17.726;2023-09-07T05:28:51;5.10;;;1.77;;
10430;SDS011;5262;59.958;17.726;2023-09-07T05:31:17;3.63;;;2.30;;
10430;SDS011;5262;59.958;17.726;2023-09-07T05:33:43;3.20;;;1.93;;
10430;SDS011;5262;59.958;17.726;2023-09-07T05:36:08;4.17;;;1.90;;
10430;SDS011;5262;59.958;17.726;2023-09-07T05:38:34;2.40;;;1.90;;
10430;SDS011;5262;59.958;17.726;2023-09-07T05:41:00;4.93;;;1.80;;
10430;SDS011;5262;59.958;17.726;2023-09-07T05:43:25;2.87;;;1.73;;
10430;SDS011;5262;59.958;17.726;2023-09-07T05:45:51;3.87;;;1.77;;
10430;SDS011;5262;59.958;17.726;2023-09-07T05:48:17;6.17;;;1.90;;
10430;SDS011;5262;59.958;17.726;2023-09-07T05:50:43;5.90;;;1.80;;
10430;SDS011;5262;59.958;17.726;2023-09-07T05:53:09;4.13;;;1.70;;
10430;SDS011;5262;59.958;17.726;2023-09-07T05:55:35;2.90;;;1.80;;
10430;SDS011;5262;59.958;17.726;2023-09-07T05:58:03;4.90;;;1.60;;
10430;SDS011;5262;59.958;17.726;2023-09-07T06:00:30;4.00;;;1.50;;
10430;SDS011;5262;59.958;17.726;2023-09-07T06:02:56;3.77;;;1.40;;
10430;SDS011;5262;59.958;17.726;2023-09-07T06:05:22;3.30;;;1.40;;
10430;SDS011;5262;59.958;17.726;2023-09-07T06:07:48;4.13;;;1.43;;
10430;SDS011;5262;59.958;17.726;2023-09-07T06:10:14;2.50;;;1.30;;
10430;SDS011;5262;59.958;17.726;2023-09-07T06:12:40;4.57;;;1.70;;
10430;SDS011;5262;59.958;17.726;2023-09-07T06:15:06;3.17;;;1.33;;
10430;SDS011;5262;59.958;17.726;2023-09-07T06:17:32;3.73;;;1.83;;
10430;SDS011;5262;59.958;17.726;2023-09-07T06:19:58;3.37;;;1.40;;
10430;SDS011;5262;59.958;17.726;2023-09-07T06:22:23;5.30;;;1.70;;
10430;SDS011;5262;59.958;17.726;2023-09-07T06:24:49;5.77;;;1.60;;
10430;SDS011;5262;59.958;17.726;2023-09-07T06:27:15;4.80;;;1.20;;
10430;SDS011;5262;59.958;17.726;2023-09-07T06:29:40;4.20;;;1.50;;
10430;SDS011;5262;59.958;17.726;2023-09-07T06:32:06;3.07;;;1.40;;
10430;SDS011;5262;59.958;17.726;2023-09-07T06:34:32;4.77;;;1.80;;
10430;SDS011;5262;59.958;17.726;2023-09-07T06:36:57;2.60;;;1.50;;
10430;SDS011;5262;59.958;17.726;2023-09-07T06:39:23;5.53;;;1.40;;
10430;SDS011;5262;59.958;17.726;2023-09-07T06:41:48;2.00;;;1.67;;
10430;SDS011;5262;59.958;17.726;2023-09-07T06:44:14;5.80;;;1.40;;
10430;SDS011;5262;59.958;17.726;2023-09-07T06:46:40;4.27;;;1.40;;
10430;SDS011;5262;59.958;17.726;2023-09-07T06:49:06;4.60;;;1.63;;
10430;SDS011;5262;59.958;17.726;2023-09-07T06:51:33;5.40;;;1.60;;
10430;SDS011;5262;59.958;17.726;2023-09-07T06:53:58;2.90;;;1.17;;
10430;SDS011;5262;59.958;17.726;2023-09-07T06:56:24;4.57;;;1.40;;
10430;SDS011;5262;59.958;17.726;2023-09-07T06:58:51;3.20;;;1.40;;
10430;SDS011;5262;59.958;17.726;2023-09-07T07:01:17;2.07;;;1.17;;
10430;SDS011;5262;59.958;17.726;2023-09-07T07:03:43;2.90;;;1.47;;
10430;SDS011;5262;59.958;17.726;2023-09-07T07:06:09;5.53;;;1.67;;
10430;SDS011;5262;59.958;17.726;2023-09-07T07:08:34;2.67;;;1.30;;
10430;SDS011;5262;59.958;17.726;2023-09-07T07:11:00;1.77;;;1.20;;
10430;SDS011;5262;59.958;17.726;2023-09-07T07:13:26;2.70;;;1.40;;
10430;SDS011;5262;59.958;17.726;2023-09-07T07:15:51;3.73;;;1.47;;
10430;SDS011;5262;59.958;17.726;2023-09-07T07:18:17;3.07;;;1.40;;
10430;SDS011;5262;59.958;17.726;2023-09-07T07:20:43;2.93;;;1.47;;
10430;SDS011;5262;59.958;17.726;2023-09-07T07:23:09;1.83;;;1.20;;
10430;SDS011;5262;59.958;17.726;2023-09-07T07:25:35;3.37;;;1.50;;
10430;SDS011;5262;59.958;17.726;2023-09-07T07:28:05;3.57;;;1.27;;
10430;SDS011;5262;59.958;17.726;2023-09-07T07:30:34;1.87;;;1.27;;
10430;SDS011;5262;59.958;17.726;2023-09-07T07:33:01;3.67;;;1.23;;
10430;SDS011;5262;59.958;17.726;2023-09-07T07:35:34;5.07;;;1.30;;
10430;SDS011;5262;59.958;17.726;2023-09-07T07:38:00;4.20;;;1.43;;
10430;SDS011;5262;59.958;17.726;2023-09-07T07:40:27;5.50;;;1.50;;
10430;SDS011;5262;59.958;17.726;2023-09-07T07:42:52;3.03;;;1.20;;
10430;SDS011;5262;59.958;17.726;2023-09-07T07:45:18;3.43;;;1.57;;
10430;SDS011;5262;59.958;17.726;2023-09-07T07:47:45;3.90;;;1.40;;
10430;SDS011;5262;59.958;17.726;2023-09-07T07:50:11;3.00;;;1.30;;
10430;SDS011;5262;59.958;17.726;2023-09-07T07:52:37;3.70;;;1.50;;
10430;SDS011;5262;59.958;17.726;2023-09-07T07:55:03;3.33;;;1.50;;
10430;SDS011;5262;59.958;17.726;2023-09-07T07:57:29;3.90;;;1.27;;
10430;SDS011;5262;59.958;17.726;2023-09-07T07:59:56;4.63;;;1.37;;
10430;SDS011;5262;59.958;17.726;2023-09-07T08:02:22;2.63;;;1.35;;
10430;SDS011;5262;59.958;17.726;2023-09-07T08:04:47;3.30;;;1.60;;
10430;SDS011;5262;59.958;17.726;2023-09-07T08:07:13;1.67;;;1.08;;
10430;SDS011;5262;59.958;17.726;2023-09-07T08:09:39;1.85;;;1.30;;
10430;SDS011;5262;59.958;17.726;2023-09-07T08:12:04;3.08;;;1.45;;
10430;SDS011;5262;59.958;17.726;2023-09-07T08:14:31;4.30;;;1.13;;
10430;SDS011;5262;59.958;17.726;2023-09-07T08:16:57;2.80;;;1.50;;
10430;SDS011;5262;59.958;17.726;2023-09-07T08:19:23;2.83;;;1.20;;
10430;SDS011;5262;59.958;17.726;2023-09-07T08:21:49;2.83;;;1.55;;
10430;SDS011;5262;59.958;17.726;2023-09-07T08:24:15;1.92;;;1.38;;
10430;SDS011;5262;59.958;17.726;2023-09-07T08:26:41;2.08;;;1.35;;
10430;SDS011;5262;59.958;17.726;2023-09-07T08:29:08;3.80;;;1.73;;
10430;SDS011;5262;59.958;17.726;2023-09-07T08:31:37;1.83;;;1.27;;
10430;SDS011;5262;59.958;17.726;2023-09-07T08:34:07;2.88;;;1.52;;
10430;SDS011;5262;59.958;17.726;2023-09-07T08:36:36;3.95;;;1.50;;
10430;SDS011;5262;59.958;17.726;2023-09-07T08:39:03;3.85;;;1.52;;
10430;SDS011;5262;59.958;17.726;2023-09-07T08:41:36;2.42;;;1.20;;
10430;SDS011;5262;59.958;17.726;2023-09-07T08:44:18;4.25;;;1.50;;
10430;SDS011;5262;59.958;17.726;2023-09-07T08:46:45;3.10;;;1.48;;
10430;SDS011;5262;59.958;17.726;2023-09-07T08:49:12;2.90;;;1.20;;
10430;SDS011;5262;59.958;17.726;2023-09-07T08:51:38;1.75;;;1.10;;
10430;SDS011;5262;59.958;17.726;2023-09-07T08:54:04;2.45;;;1.10;;
10430;SDS011;5262;59.958;17.726;2023-09-07T08:56:32;3.05;;;1.38;;
10430;SDS011;5262;59.958;17.726;2023-09-07T08:58:59;2.80;;;1.48;;
10430;SDS011;5262;59.958;17.726;2023-09-07T09:01:24;2.47;;;1.42;;
10430;SDS011;5262;59.958;17.726;2023-09-07T09:03:51;3.70;;;1.55;;
10430;SDS011;5262;59.958;17.726;2023-09-07T09:06:18;4.95;;;1.40;;
10430;SDS011;5262;59.958;17.726;2023-09-07T09:08:45;2.10;;;1.05;;
10430;SDS011;5262;59.958;17.726;2023-09-07T09:11:14;3.03;;;1.08;;
10430;SDS011;5262;59.958;17.726;2023-09-07T09:13:40;1.50;;;1.00;;
10430;SDS011;5262;59.958;17.726;2023-09-07T09:16:06;2.75;;;1.10;;
10430;SDS011;5262;59.958;17.726;2023-09-07T09:18:32;2.22;;;1.20;;
10430;SDS011;5262;59.958;17.726;2023-09-07T09:20:57;2.10;;;1.30;;
10430;SDS011;5262;59.958;17.726;2023-09-07T09:23:32;2.63;;;1.10;;
10430;SDS011;5262;59.958;17.726;2023-09-07T09:25:59;2.22;;;1.00;;
10430;SDS011;5262;59.958;17.726;2023-09-07T09:28:26;4.82;;;1.50;;
10430;SDS011;5262;59.958;17.726;2023-09-07T09:30:56;4.10;;;1.20;;
10430;SDS011;5262;59.958;17.726;2023-09-07T09:33:23;2.97;;;1.45;;
10430;SDS011;5262;59.958;17.726;2023-09-07T09:35:50;3.70;;;1.38;;
10430;SDS011;5262;59.958;17.726;2023-09-07T09:38:18;1.60;;;1.10;;
10430;SDS011;5262;59.958;17.726;2023-09-07T09:40:44;3.53;;;1.42;;
10430;SDS011;5262;59.958;17.726;2023-09-07T09:43:10;2.25;;;1.02;;
10430;SDS011;5262;59.958;17.726;2023-09-07T09:45:37;2.25;;;1.20;;
10430;SDS011;5262;59.958;17.726;2023-09-07T09:48:03;1.48;;;1.27;;
10430;SDS011;5262;59.958;17.726;2023-09-07T09:50:30;2.10;;;1.27;;
10430;SDS011;5262;59.958;17.726;2023-09-07T09:52:57;3.65;;;1.50;;
10430;SDS011;5262;59.958;17.726;2023-09-07T09:55:24;2.80;;;1.58;;
10430;SDS011;5262;59.958;17.726;2023-09-07T09:57:50;2.42;;;1.20;;
10430;SDS011;5262;59.958;17.726;2023-09-07T10:00:15;2.70;;;1.38;;
10430;SDS011;5262;59.958;17.726;2023-09-07T10:02:42;3.28;;;1.35;;
10430;SDS011;5262;59.958;17.726;2023-09-07T10:05:11;2.58;;;1.55;;
10430;SDS011;5262;59.958;17.726;2023-09-07T10:07:42;4.72;;;1.77;;
10430;SDS011;5262;59.958;17.726;2023-09-07T10:10:18;3.40;;;1.33;;
10430;SDS011;5262;59.958;17.726;2023-09-07T10:12:45;4.07;;;1.25;;
10430;SDS011;5262;59.958;17.726;2023-09-07T10:15:24;2.65;;;1.40;;
10430;SDS011;5262;59.958;17.726;2023-09-07T10:18:02;2.88;;;1.20;;
10430;SDS011;5262;59.958;17.726;2023-09-07T10:20:48;1.88;;;1.20;;
10430;SDS011;5262;59.958;17.726;2023-09-07T10:23:23;2.72;;;1.45;;
10430;SDS011;5262;59.958;17.726;2023-09-07T10:26:11;6.00;;;1.50;;
10430;SDS011;5262;59.958;17.726;2023-09-07T10:28:45;3.65;;;1.60;;
10430;SDS011;5262;59.958;17.726;2023-09-07T10:31:14;5.57;;;1.85;;
10430;SDS011;5262;59.958;17.726;2023-09-07T10:33:44;9.65;;;1.60;;
10430;SDS011;5262;59.958;17.726;2023-09-07T10:36:20;2.00;;;1.80;;
10430;SDS011;5262;59.958;17.726;2023-09-07T10:38:50;3.95;;;1.58;;
10430;SDS011;5262;59.958;17.726;2023-09-07T10:41:18;3.28;;;1.75;;
10430;SDS011;5262;59.958;17.726;2023-09-07T10:43:51;2.95;;;1.35;;
10430;SDS011;5262;59.958;17.726;2023-09-07T10:46:22;5.45;;;2.13;;
10430;SDS011;5262;59.958;17.726;2023-09-07T10:48:52;1.67;;;1.50;;
10430;SDS011;5262;59.958;17.726;2023-09-07T10:51:18;3.50;;;1.85;;
10430;SDS011;5262;59.958;17.726;2023-09-07T10:53:45;3.50;;;1.50;;
10430;SDS011;5262;59.958;17.726;2023-09-07T10:56:10;2.28;;;1.50;;
10430;SDS011;5262;59.958;17.726;2023-09-07T10:58:36;2.38;;;1.80;;
10430;SDS011;5262;59.958;17.726;2023-09-07T11:01:07;2.85;;;1.70;;
10430;SDS011;5262;59.958;17.726;2023-09-07T11:03:36;3.25;;;1.77;;
10430;SDS011;5262;59.958;17.726;2023-09-07T11:06:07;3.17;;;1.65;;
10430;SDS011;5262;59.958;17.726;2023-09-07T11:08:39;4.05;;;1.85;;
10430;SDS011;5262;59.958;17.726;2023-09-07T11:11:05;2.50;;;1.70;;
10430;SDS011;5262;59.958;17.726;2023-09-07T11:13:31;4.30;;;1.50;;
10430;SDS011;5262;59.958;17.726;2023-09-07T11:15:57;3.15;;;1.95;;
10430;SDS011;5262;59.958;17.726;2023-09-07T11:18:24;3.33;;;1.90;;
10430;SDS011;5262;59.958;17.726;2023-09-07T11:20:51;5.77;;;2.00;;
10430;SDS011;5262;59.958;17.726;2023-09-07T11:23:18;3.47;;;2.13;;
10430;SDS011;5262;59.958;17.726;2023-09-07T11:25:48;3.92;;;2.00;;
10430;SDS011;5262;59.958;17.726;2023-09-07T11:28:16;4.65;;;2.50;;
10430;SDS011;5262;59.958;17.726;2023-09-07T11:30:52;3.42;;;2.00;;
10430;SDS011;5262;59.958;17.726;2023-09-07T11:33:20;2.50;;;1.92;;
10430;SDS011;5262;59.958;17.726;2023-09-07T11:35:46;4.03;;;2.30;;
10430;SDS011;5262;59.958;17.726;2023-09-07T11:38:13;3.38;;;2.40;;
10430;SDS011;5262;59.958;17.726;2023-09-07T11:40:39;2.60;;;2.03;;
10430;SDS011;5262;59.958;17.726;2023-09-07T11:43:09;3.67;;;2.50;;
10430;SDS011;5262;59.958;17.726;2023-09-07T11:45:43;3.60;;;2.40;;
10430;SDS011;5262;59.958;17.726;2023-09-07T11:48:12;5.00;;;2.33;;
10430;SDS011;5262;59.958;17.726;2023-09-07T11:50:38;3.22;;;2.13;;
10430;SDS011;5262;59.958;17.726;2023-09-07T11:53:05;3.47;;;2.40;;
10430;SDS011;5262;59.958;17.726;2023-09-07T11:55:31;3.83;;;2.30;;
10430;SDS011;5262;59.958;17.726;2023-09-07T11:57:58;3.63;;;2.17;;
10430;SDS011;5262;59.958;17.726;2023-09-07T12:00:23;2.92;;;2.33;;
10430;SDS011;5262;59.958;17.726;2023-09-07T12:02:49;3.42;;;2.22;;
10430;SDS011;5262;59.958;17.726;2023-09-07T12:05:15;3.15;;;2.15;;
10430;SDS011;5262;59.958;17.726;2023-09-07T12:07:43;3.15;;;2.10;;
10430;SDS011;5262;59.958;17.726;2023-09-07T12:10:08;3.03;;;2.30;;
10430;SDS011;5262;59.958;17.726;2023-09-07T12:12:38;2.17;;;1.95;;
10430;SDS011;5262;59.958;17.726;2023-09-07T12:15:05;4.15;;;2.28;;
10430;SDS011;5262;59.958;17.726;2023-09-07T12:17:31;4.50;;;2.35;;
10430;SDS011;5262;59.958;17.726;2023-09-07T12:19:57;3.23;;;2.23;;
10430;SDS011;5262;59.958;17.726;2023-09-07T12:22:23;3.60;;;1.90;;
10430;SDS011;5262;59.958;17.726;2023-09-07T12:24:49;5.40;;;2.10;;
10430;SDS011;5262;59.958;17.726;2023-09-07T12:27:15;3.00;;;1.80;;
10430;SDS011;5262;59.958;17.726;2023-09-07T12:29:40;4.10;;;2.00;;
10430;SDS011;5262;59.958;17.726;2023-09-07T12:32:06;4.60;;;1.80;;
10430;SDS011;5262;59.958;17.726;2023-09-07T12:34:32;3.30;;;2.10;;
10430;SDS011;5262;59.958;17.726;2023-09-07T12:36:58;4.17;;;2.00;;
10430;SDS011;5262;59.958;17.726;2023-09-07T12:39:23;3.37;;;2.00;;
10430;SDS011;5262;59.958;17.726;2023-09-07T12:41:49;2.53;;;1.60;;
10430;SDS011;5262;59.958;17.726;2023-09-07T12:44:15;3.67;;;1.80;;
10430;SDS011;5262;59.958;17.726;2023-09-07T12:46:43;4.03;;;2.03;;
10430;SDS011;5262;59.958;17.726;2023-09-07T12:49:09;2.90;;;1.60;;
10430;SDS011;5262;59.958;17.726;2023-09-07T12:51:35;3.47;;;2.07;;
10430;SDS011;5262;59.958;17.726;2023-09-07T12:54:00;3.60;;;2.00;;
10430;SDS011;5262;59.958;17.726;2023-09-07T12:56:26;2.83;;;1.93;;
10430;SDS011;5262;59.958;17.726;2023-09-07T12:58:52;3.73;;;2.53;;
10430;SDS011;5262;59.958;17.726;2023-09-07T13:01:18;2.77;;;2.23;;
10430;SDS011;5262;59.958;17.726;2023-09-07T13:03:44;3.47;;;3.10;;
10430;SDS011;5262;59.958;17.726;2023-09-07T13:06:09;4.33;;;3.30;;
10430;SDS011;5262;59.958;17.726;2023-09-07T13:08:36;3.50;;;2.90;;
10430;SDS011;5262;59.958;17.726;2023-09-07T13:11:01;4.37;;;3.13;;
10430;SDS011;5262;59.958;17.726;2023-09-07T13:13:27;3.37;;;2.90;;
10430;SDS011;5262;59.958;17.726;2023-09-07T13:15:57;5.87;;;3.53;;
10430;SDS011;5262;59.958;17.726;2023-09-07T13:18:23;3.53;;;3.20;;
10430;SDS011;5262;59.958;17.726;2023-09-07T13:20:51;4.57;;;3.13;;
10430;SDS011;5262;59.958;17.726;2023-09-07T13:23:19;4.27;;;2.80;;
10430;SDS011;5262;59.958;17.726;2023-09-07T13:25:45;3.50;;;3.20;;
10430;SDS011;5262;59.958;17.726;2023-09-07T13:28:11;4.10;;;3.10;;
10430;SDS011;5262;59.958;17.726;2023-09-07T13:30:37;2.97;;;2.60;;
10430;SDS011;5262;59.958;17.726;2023-09-07T13:33:02;5.03;;;2.83;;
10430;SDS011;5262;59.958;17.726;2023-09-07T13:35:28;2.80;;;2.50;;
10430;SDS011;5262;59.958;17.726;2023-09-07T13:37:54;3.40;;;2.73;;
10430;SDS011;5262;59.958;17.726;2023-09-07T13:40:20;3.10;;;2.60;;
10430;SDS011;5262;59.958;17.726;2023-09-07T13:42:49;4.67;;;2.90;;
10430;SDS011;5262;59.958;17.726;2023-09-07T13:45:14;4.53;;;2.90;;
10430;SDS011;5262;59.958;17.726;2023-09-07T13:47:40;3.03;;;2.67;;
10430;SDS011;5262;59.958;17.726;2023-09-07T13:50:06;3.37;;;2.33;;
10430;SDS011;5262;59.958;17.726;2023-09-07T13:52:32;4.07;;;3.07;;
10430;SDS011;5262;59.958;17.726;2023-09-07T13:54:57;5.23;;;2.80;;
10430;SDS011;5262;59.958;17.726;2023-09-07T13:57:23;3.50;;;2.90;;
10430;SDS011;5262;59.958;17.726;2023-09-07T13:59:48;7.50;;;2.83;;
10430;SDS011;5262;59.958;17.726;2023-09-07T14:02:14;4.27;;;2.80;;
10430;SDS011;5262;59.958;17.726;2023-09-07T14:04:40;3.93;;;2.97;;
10430;SDS011;5262;59.958;17.726;2023-09-07T14:07:06;4.40;;;2.77;;
10430;SDS011;5262;59.958;17.726;2023-09-07T14:09:31;5.17;;;3.00;;
10430;SDS011;5262;59.958;17.726;2023-09-07T14:11:58;3.77;;;2.77;;
10430;SDS011;5262;59.958;17.726;2023-09-07T14:14:24;4.03;;;2.60;;
10430;SDS011;5262;59.958;17.726;2023-09-07T14:16:50;2.90;;;2.63;;
10430;SDS011;5262;59.958;17.726;2023-09-07T14:19:20;5.43;;;2.50;;
10430;SDS011;5262;59.958;17.726;2023-09-07T14:21:45;3.13;;;2.50;;
10430;SDS011;5262;59.958;17.726;2023-09-07T14:24:11;3.37;;;2.40;;
10430;SDS011;5262;59.958;17.726;2023-09-07T14:26:37;2.90;;;2.60;;
10430;SDS011;5262;59.958;17.726;2023-09-07T14:29:02;5.17;;;2.60;;
10430;SDS011;5262;59.958;17.726;2023-09-07T14:31:28;4.07;;;2.43;;
10430;SDS011;5262;59.958;17.726;2023-09-07T14:33:53;3.17;;;2.80;;
10430;SDS011;5262;59.958;17.726;2023-09-07T14:36:19;3.47;;;2.90;;
10430;SDS011;5262;59.958;17.726;2023-09-07T14:38:45;5.77;;;2.53;;
10430;SDS011;5262;59.958;17.726;2023-09-07T14:41:11;3.10;;;2.20;;
10430;SDS011;5262;59.958;17.726;2023-09-07T14:43:43;3.90;;;2.50;;
10430;SDS011;5262;59.958;17.726;2023-09-07T14:46:09;3.87;;;2.37;;